< < Back
Terminal Aerodrome Forecast


Current Version              Previous Versions:   1  2  3  4  5  6  7  8  9  

Terminal Aerodrome Forecast

784
FTUS42 KTAE 222300 RRA
TAFDHN
TAF
KDHN 222347Z 2300/2324 10010KT P6SM FEW008 OVC025
     FM230300 10010KT 3SM RA BR OVC007
     FM231700 19017G26KT P6SM VCTS BKN015CB BKN030=



Latest METAR

335
SAUS70 KWBC 231700 RRM
MTRDHN
METAR KDHN 231653Z 16014G23KT 8SM BKN009 OVC014 22/21 A2983 RMK AO2
TSE1558RAE35 CIG 004V011 SLP098 P0003 T02170211


USA.gov is the U.S. government's official web portal to all federal, state and local government web resources and services.